ROA013 SVMI-SVMC
Flight info
| Callsign | ROA013 |
|---|---|
| Flight time | 0h 59m |
| Altitude | 24000 |
| Route | MARES1 MARES A315 ATONO G427 PBL/N0455F360 UW52 MAU A552 MAR |
| Aircraft | B737/M-SDE2E3FGHIRWXY/LB1 |
Departure
| Time | 2026-04-29 00:20 |
|---|---|
| Airport | Maiquetía Simón Bolívar International Airport (SVMI) |
Arrival
| Time | 2026-04-29 01:20 |
|---|---|
| Airport | La Chinita International Airport (SVMC) |
| Time | Latitude | Longitude | Altitude | Speed | Heading |
|---|---|---|---|---|---|
| 2026-04-28 23:52 | 10.59828 | -67.00151 | 221 ft | 0 kts | 178° |
| 2026-04-29 00:06 | 10.59836 | -67.00151 | 220 ft | 3 kts | 179° |
| 2026-04-29 00:07 | 10.59856 | -67.00151 | 210 ft | 3 kts | 179° |
| 2026-04-29 00:07 | 10.59877 | -67.00152 | 222 ft | 3 kts | 176° |
| 2026-04-29 00:07 | 10.59893 | -67.00154 | 222 ft | 2 kts | 162° |
| 2026-04-29 00:07 | 10.59901 | -67.00158 | 222 ft | 1 kts | 128° |
| 2026-04-29 00:08 | 10.59906 | -67.00165 | 222 ft | 1 kts | 99° |
| 2026-04-29 00:08 | 10.59906 | -67.00174 | 222 ft | 1 kts | 91° |
| 2026-04-29 00:08 | 10.59906 | -67.00179 | 222 ft | 0 kts | 89° |
| 2026-04-29 00:12 | 10.59907 | -67.00173 | 222 ft | 2 kts | 89° |
| 2026-04-29 00:13 | 10.59907 | -67.00145 | 221 ft | 6 kts | 89° |
| 2026-04-29 00:13 | 10.59909 | -67.00093 | 221 ft | 9 kts | 88° |
| 2026-04-29 00:13 | 10.59911 | -67.00021 | 220 ft | 11 kts | 88° |
| 2026-04-29 00:13 | 10.59914 | -66.99951 | 219 ft | 6 kts | 86° |
| 2026-04-29 00:14 | 10.59940 | -66.99917 | 218 ft | 7 kts | 19° |
| 2026-04-29 00:14 | 10.59998 | -66.99913 | 218 ft | 10 kts | 359° |
| 2026-04-29 00:14 | 10.60068 | -66.99915 | 220 ft | 10 kts | 358° |
| 2026-04-29 00:14 | 10.60127 | -66.99887 | 216 ft | 11 kts | 59° |
| 2026-04-29 00:15 | 10.60136 | -66.99806 | 214 ft | 13 kts | 89° |
| 2026-04-29 00:15 | 10.60135 | -66.99700 | 219 ft | 16 kts | 103° |
| 2026-04-29 00:15 | 10.60078 | -66.99665 | 212 ft | 4 kts | 175° |
| 2026-04-29 00:15 | 10.60053 | -66.99663 | 216 ft | 4 kts | 177° |
| 2026-04-29 00:16 | 10.60028 | -66.99664 | 218 ft | 4 kts | 181° |
| 2026-04-29 00:16 | 10.60004 | -66.99663 | 219 ft | 3 kts | 178° |
| 2026-04-29 00:16 | 10.59984 | -66.99662 | 222 ft | 0 kts | 177° |
| 2026-04-29 00:18 | 10.59963 | -66.99661 | 218 ft | 6 kts | 178° |
| 2026-04-29 00:19 | 10.59913 | -66.99656 | 217 ft | 7 kts | 154° |
| 2026-04-29 00:19 | 10.59905 | -66.99646 | 219 ft | 1 kts | 102° |
| 2026-04-29 00:19 | 10.59905 | -66.99636 | 221 ft | 0 kts | 83° |
| 2026-04-29 00:19 | 10.59913 | -66.99595 | 214 ft | 18 kts | 77° |
| 2026-04-29 00:20 | 10.59998 | -66.99248 | 201 ft | 89 kts | 76° |
| 2026-04-29 00:20 | 10.60206 | -66.98408 | 190 ft | 152 kts | 76° |
| 2026-04-29 00:20 | 10.60559 | -66.97358 | 825 ft | 154 kts | 66° |
| 2026-04-29 00:20 | 10.61052 | -66.96439 | 1791 ft | 145 kts | 57° |
| 2026-04-29 00:21 | 10.61839 | -66.95713 | 2257 ft | 162 kts | 30° |
| 2026-04-29 00:21 | 10.63039 | -66.95426 | 2490 ft | 197 kts | 360° |
| 2026-04-29 00:21 | 10.64414 | -66.95899 | 2740 ft | 226 kts | 325° |
| 2026-04-29 00:21 | 10.65333 | -66.97267 | 2995 ft | 246 kts | 285° |
| 2026-04-29 00:22 | 10.65692 | -66.99022 | 3318 ft | 267 kts | 281° |
| 2026-04-29 00:22 | 10.66061 | -67.00890 | 3805 ft | 274 kts | 282° |
| 2026-04-29 00:22 | 10.66436 | -67.02801 | 3966 ft | 275 kts | 281° |
| 2026-04-29 00:22 | 10.66809 | -67.04705 | 4068 ft | 276 kts | 282° |
| 2026-04-29 00:23 | 10.67268 | -67.06618 | 4612 ft | 281 kts | 293° |
| 2026-04-29 00:23 | 10.68321 | -67.08271 | 5452 ft | 279 kts | 310° |
| 2026-04-29 00:23 | 10.69581 | -67.09818 | 6101 ft | 288 kts | 312° |
| 2026-04-29 00:23 | 10.70872 | -67.11387 | 6841 ft | 293 kts | 312° |
| 2026-04-29 00:24 | 10.72188 | -67.12992 | 7585 ft | 297 kts | 312° |
| 2026-04-29 00:24 | 10.73518 | -67.14621 | 8333 ft | 302 kts | 311° |
| 2026-04-29 00:24 | 10.74865 | -67.16281 | 9142 ft | 306 kts | 311° |
| 2026-04-29 00:24 | 10.76212 | -67.17945 | 9952 ft | 311 kts | 312° |
| 2026-04-29 00:25 | 10.77603 | -67.19665 | 10504 ft | 324 kts | 312° |
| 2026-04-29 00:25 | 10.79096 | -67.21511 | 10702 ft | 349 kts | 311° |
| 2026-04-29 00:25 | 10.80616 | -67.23495 | 11237 ft | 360 kts | 309° |
| 2026-04-29 00:25 | 10.82118 | -67.25531 | 12051 ft | 361 kts | 308° |
| 2026-04-29 00:26 | 10.83631 | -67.27598 | 12750 ft | 367 kts | 308° |
| 2026-04-29 00:26 | 10.85167 | -67.29690 | 13509 ft | 370 kts | 308° |
| 2026-04-29 00:26 | 10.86722 | -67.31803 | 14146 ft | 376 kts | 308° |
| 2026-04-29 00:26 | 10.87767 | -67.33219 | 14595 ft | 377 kts | 308° |
| 2026-04-29 00:27 | 10.89849 | -67.36034 | 15639 ft | 378 kts | 307° |
| 2026-04-29 00:27 | 10.91439 | -67.38181 | 16279 ft | 383 kts | 307° |
| 2026-04-29 00:27 | 10.93048 | -67.40354 | 16929 ft | 387 kts | 307° |
| 2026-04-29 00:27 | 10.94666 | -67.42540 | 17647 ft | 389 kts | 307° |
| 2026-04-29 00:28 | 10.96115 | -67.44884 | 18234 ft | 393 kts | 291° |
| 2026-04-29 00:28 | 10.96733 | -67.47562 | 18923 ft | 390 kts | 272° |
| 2026-04-29 00:28 | 10.96446 | -67.50301 | 19397 ft | 393 kts | 252° |
| 2026-04-29 00:28 | 10.95329 | -67.52782 | 19936 ft | 391 kts | 233° |
| 2026-04-29 00:29 | 10.93631 | -67.54933 | 20563 ft | 390 kts | 227° |
| 2026-04-29 00:29 | 10.91836 | -67.57011 | 21123 ft | 392 kts | 226° |
| 2026-04-29 00:29 | 10.90007 | -67.59090 | 21627 ft | 396 kts | 226° |
| 2026-04-29 00:29 | 10.88182 | -67.61177 | 22344 ft | 393 kts | 226° |
| 2026-04-29 00:30 | 10.86390 | -67.63254 | 23117 ft | 390 kts | 226° |
| 2026-04-29 00:30 | 10.85212 | -67.64630 | 23564 ft | 388 kts | 226° |
| 2026-04-29 00:30 | 10.82846 | -67.67408 | 23884 ft | 388 kts | 227° |
| 2026-04-29 00:30 | 10.81110 | -67.69452 | 23909 ft | 384 kts | 227° |
| 2026-04-29 00:31 | 10.79366 | -67.71504 | 23932 ft | 385 kts | 227° |
| 2026-04-29 00:31 | 10.77606 | -67.73571 | 23939 ft | 389 kts | 227° |
| 2026-04-29 00:31 | 10.75824 | -67.75663 | 23953 ft | 392 kts | 227° |
| 2026-04-29 00:31 | 10.74044 | -67.77751 | 23943 ft | 390 kts | 227° |
| 2026-04-29 00:32 | 10.72867 | -67.79131 | 23947 ft | 389 kts | 227° |
| 2026-04-29 00:32 | 10.71556 | -67.80668 | 23945 ft | 389 kts | 227° |
| 2026-04-29 00:32 | 10.69787 | -67.82743 | 23946 ft | 388 kts | 227° |
| 2026-04-29 00:32 | 10.68017 | -67.84818 | 23946 ft | 388 kts | 227° |
| 2026-04-29 00:33 | 10.66227 | -67.86916 | 23949 ft | 388 kts | 227° |
| 2026-04-29 00:33 | 10.64478 | -67.88967 | 23954 ft | 389 kts | 227° |
| 2026-04-29 00:33 | 10.62705 | -67.91045 | 23950 ft | 390 kts | 227° |
| 2026-04-29 00:33 | 10.60927 | -67.93128 | 23952 ft | 390 kts | 227° |
| 2026-04-29 00:34 | 10.59144 | -67.95218 | 23953 ft | 391 kts | 227° |
| 2026-04-29 00:34 | 10.57361 | -67.97306 | 23952 ft | 392 kts | 227° |
| 2026-04-29 00:34 | 10.55572 | -67.99402 | 23956 ft | 393 kts | 227° |
| 2026-04-29 00:34 | 10.53781 | -68.01499 | 23956 ft | 393 kts | 227° |
| 2026-04-29 00:35 | 10.52013 | -68.03570 | 23959 ft | 393 kts | 227° |
| 2026-04-29 00:35 | 10.50269 | -68.05710 | 23947 ft | 395 kts | 234° |
| 2026-04-29 00:35 | 10.49068 | -68.08229 | 23970 ft | 398 kts | 251° |
| 2026-04-29 00:35 | 10.48557 | -68.10996 | 23957 ft | 402 kts | 267° |
| 2026-04-29 00:36 | 10.48672 | -68.13835 | 23976 ft | 403 kts | 272° |
| 2026-04-29 00:36 | 10.48889 | -68.16675 | 23966 ft | 404 kts | 273° |
| 2026-04-29 00:36 | 10.49127 | -68.19518 | 23963 ft | 404 kts | 273° |
| 2026-04-29 00:36 | 10.49361 | -68.22364 | 23963 ft | 404 kts | 273° |
| 2026-04-29 00:37 | 10.49583 | -68.25209 | 23962 ft | 404 kts | 272° |
| 2026-04-29 00:37 | 10.49795 | -68.28055 | 23964 ft | 404 kts | 272° |
| 2026-04-29 00:37 | 10.49997 | -68.30865 | 23964 ft | 404 kts | 272° |
| 2026-04-29 00:37 | 10.50196 | -68.33710 | 23962 ft | 404 kts | 272° |
| 2026-04-29 00:38 | 10.50393 | -68.36553 | 23959 ft | 404 kts | 272° |
| 2026-04-29 00:38 | 10.50589 | -68.39401 | 23965 ft | 404 kts | 272° |
| 2026-04-29 00:38 | 10.50783 | -68.42237 | 23963 ft | 403 kts | 272° |
| 2026-04-29 00:38 | 10.50978 | -68.45084 | 23965 ft | 403 kts | 272° |
| 2026-04-29 00:39 | 10.51173 | -68.47930 | 23966 ft | 403 kts | 272° |
| 2026-04-29 00:39 | 10.51367 | -68.50775 | 23968 ft | 403 kts | 272° |
| 2026-04-29 00:39 | 10.51561 | -68.53615 | 23968 ft | 404 kts | 272° |
| 2026-04-29 00:39 | 10.51755 | -68.56460 | 23970 ft | 404 kts | 272° |
| 2026-04-29 00:40 | 10.51949 | -68.59308 | 23969 ft | 404 kts | 272° |
| 2026-04-29 00:40 | 10.52140 | -68.62117 | 23977 ft | 404 kts | 272° |
| 2026-04-29 00:40 | 10.52334 | -68.64969 | 23963 ft | 404 kts | 272° |
| 2026-04-29 00:40 | 10.52528 | -68.67818 | 23969 ft | 404 kts | 272° |
| 2026-04-29 00:41 | 10.52721 | -68.70668 | 23970 ft | 404 kts | 272° |
| 2026-04-29 00:41 | 10.52914 | -68.73516 | 23970 ft | 404 kts | 272° |
| 2026-04-29 00:41 | 10.53107 | -68.76368 | 23967 ft | 404 kts | 272° |
| 2026-04-29 00:41 | 10.53299 | -68.79218 | 23970 ft | 404 kts | 272° |
| 2026-04-29 00:42 | 10.53491 | -68.82063 | 23969 ft | 404 kts | 272° |
| 2026-04-29 00:42 | 10.53680 | -68.84869 | 23972 ft | 404 kts | 272° |
| 2026-04-29 00:42 | 10.53871 | -68.87714 | 23975 ft | 403 kts | 272° |
| 2026-04-29 00:42 | 10.54062 | -68.90556 | 23971 ft | 404 kts | 272° |
| 2026-04-29 00:43 | 10.54253 | -68.93406 | 23980 ft | 404 kts | 272° |
| 2026-04-29 00:43 | 10.54445 | -68.96250 | 23974 ft | 404 kts | 272° |
| 2026-04-29 00:43 | 10.54659 | -68.99095 | 23983 ft | 404 kts | 273° |
| 2026-04-29 00:43 | 10.54887 | -69.01942 | 23979 ft | 404 kts | 273° |
| 2026-04-29 00:44 | 10.55120 | -69.04784 | 23977 ft | 404 kts | 273° |
| 2026-04-29 00:44 | 10.55352 | -69.07631 | 23982 ft | 404 kts | 273° |
| 2026-04-29 00:44 | 10.55579 | -69.10434 | 23982 ft | 403 kts | 273° |
| 2026-04-29 00:44 | 10.55807 | -69.13274 | 23977 ft | 403 kts | 273° |
| 2026-04-29 00:45 | 10.56033 | -69.16109 | 23971 ft | 403 kts | 273° |
| 2026-04-29 00:45 | 10.56259 | -69.18951 | 23981 ft | 403 kts | 273° |
| 2026-04-29 00:45 | 10.56484 | -69.21784 | 23984 ft | 403 kts | 273° |
| 2026-04-29 00:45 | 10.56708 | -69.24622 | 23980 ft | 403 kts | 273° |
| 2026-04-29 00:46 | 10.56932 | -69.27460 | 23983 ft | 403 kts | 273° |
| 2026-04-29 00:46 | 10.57156 | -69.30296 | 23985 ft | 403 kts | 273° |
| 2026-04-29 00:46 | 10.57379 | -69.33131 | 23983 ft | 403 kts | 273° |
| 2026-04-29 00:46 | 10.57599 | -69.35928 | 23979 ft | 403 kts | 273° |
| 2026-04-29 00:47 | 10.57822 | -69.38768 | 23979 ft | 403 kts | 273° |
| 2026-04-29 00:47 | 10.58045 | -69.41604 | 23973 ft | 403 kts | 273° |
| 2026-04-29 00:47 | 10.58268 | -69.44446 | 23974 ft | 403 kts | 273° |
| 2026-04-29 00:47 | 10.58491 | -69.47287 | 23977 ft | 403 kts | 273° |
| 2026-04-29 00:48 | 10.58712 | -69.50120 | 23975 ft | 403 kts | 273° |
| 2026-04-29 00:48 | 10.58934 | -69.52952 | 23976 ft | 403 kts | 273° |
| 2026-04-29 00:48 | 10.59157 | -69.55801 | 23973 ft | 403 kts | 273° |
| 2026-04-29 00:48 | 10.59378 | -69.58640 | 23970 ft | 403 kts | 273° |
| 2026-04-29 00:49 | 10.59599 | -69.61476 | 23974 ft | 402 kts | 273° |
| 2026-04-29 00:49 | 10.59816 | -69.64272 | 23973 ft | 402 kts | 273° |
| 2026-04-29 00:49 | 10.60037 | -69.67107 | 23971 ft | 403 kts | 273° |
| 2026-04-29 00:49 | 10.60258 | -69.69946 | 23977 ft | 403 kts | 273° |
| 2026-04-29 00:50 | 10.60468 | -69.72790 | 23965 ft | 403 kts | 272° |
| 2026-04-29 00:50 | 10.60660 | -69.75632 | 23973 ft | 404 kts | 272° |
| 2026-04-29 00:50 | 10.60846 | -69.78479 | 23966 ft | 404 kts | 272° |
| 2026-04-29 00:50 | 10.61031 | -69.81332 | 23959 ft | 404 kts | 272° |
| 2026-04-29 00:51 | 10.61217 | -69.84177 | 23960 ft | 404 kts | 272° |
| 2026-04-29 00:51 | 10.61403 | -69.87022 | 23958 ft | 403 kts | 272° |
| 2026-04-29 00:51 | 10.61588 | -69.89828 | 23962 ft | 403 kts | 272° |
| 2026-04-29 00:51 | 10.61776 | -69.92667 | 23961 ft | 403 kts | 272° |
| 2026-04-29 00:52 | 10.61964 | -69.95509 | 23957 ft | 402 kts | 272° |
| 2026-04-29 00:52 | 10.62151 | -69.98344 | 23953 ft | 402 kts | 272° |
| 2026-04-29 00:52 | 10.62339 | -70.01181 | 23954 ft | 402 kts | 272° |
| 2026-04-29 00:52 | 10.62525 | -70.04014 | 23954 ft | 402 kts | 272° |
| 2026-04-29 00:53 | 10.62712 | -70.06852 | 23949 ft | 402 kts | 272° |
| 2026-04-29 00:53 | 10.62898 | -70.09686 | 23955 ft | 402 kts | 272° |
| 2026-04-29 00:53 | 10.63082 | -70.12480 | 23958 ft | 402 kts | 272° |
| 2026-04-29 00:53 | 10.63267 | -70.15311 | 23957 ft | 402 kts | 272° |
| 2026-04-29 00:54 | 10.63453 | -70.18148 | 23945 ft | 402 kts | 272° |
| 2026-04-29 00:54 | 10.63637 | -70.20977 | 23950 ft | 401 kts | 272° |
| 2026-04-29 00:54 | 10.63822 | -70.23807 | 23951 ft | 401 kts | 272° |
| 2026-04-29 00:54 | 10.64006 | -70.26631 | 23948 ft | 401 kts | 272° |
| 2026-04-29 00:55 | 10.64191 | -70.29457 | 23954 ft | 401 kts | 272° |
| 2026-04-29 00:55 | 10.64374 | -70.32289 | 23944 ft | 401 kts | 272° |
| 2026-04-29 00:55 | 10.64556 | -70.35075 | 23943 ft | 401 kts | 272° |
| 2026-04-29 00:55 | 10.64738 | -70.37900 | 23947 ft | 401 kts | 272° |
| 2026-04-29 00:56 | 10.64921 | -70.40725 | 23947 ft | 401 kts | 272° |
| 2026-04-29 00:56 | 10.65100 | -70.43550 | 23945 ft | 400 kts | 272° |
| 2026-04-29 00:56 | 10.65275 | -70.46370 | 23945 ft | 400 kts | 272° |
| 2026-04-29 00:56 | 10.65448 | -70.49193 | 23936 ft | 400 kts | 272° |
| 2026-04-29 00:57 | 10.65622 | -70.52021 | 23934 ft | 400 kts | 272° |
| 2026-04-29 00:57 | 10.65796 | -70.54844 | 23932 ft | 400 kts | 272° |
| 2026-04-29 00:57 | 10.65967 | -70.57625 | 23928 ft | 400 kts | 272° |
| 2026-04-29 00:57 | 10.66140 | -70.60446 | 23925 ft | 399 kts | 272° |
| 2026-04-29 00:58 | 10.66313 | -70.63261 | 23928 ft | 399 kts | 272° |
| 2026-04-29 00:58 | 10.66485 | -70.66077 | 23924 ft | 399 kts | 272° |
| 2026-04-29 00:58 | 10.66657 | -70.68880 | 23919 ft | 395 kts | 272° |
| 2026-04-29 00:58 | 10.66827 | -70.71640 | 23911 ft | 388 kts | 272° |
| 2026-04-29 00:59 | 10.66993 | -70.74362 | 23919 ft | 385 kts | 272° |
| 2026-04-29 00:59 | 10.67159 | -70.77083 | 23925 ft | 386 kts | 272° |
| 2026-04-29 00:59 | 10.67325 | -70.79809 | 23856 ft | 387 kts | 272° |
| 2026-04-29 00:59 | 10.67492 | -70.82554 | 23476 ft | 389 kts | 272° |
| 2026-04-29 01:00 | 10.67656 | -70.85263 | 23001 ft | 388 kts | 272° |
| 2026-04-29 01:00 | 10.67822 | -70.87990 | 22519 ft | 385 kts | 272° |
| 2026-04-29 01:00 | 10.67986 | -70.90692 | 22044 ft | 382 kts | 272° |
| 2026-04-29 01:00 | 10.68148 | -70.93374 | 21575 ft | 379 kts | 272° |
| 2026-04-29 01:01 | 10.68309 | -70.96041 | 21101 ft | 376 kts | 272° |
| 2026-04-29 01:01 | 10.68469 | -70.98686 | 20635 ft | 374 kts | 272° |
| 2026-04-29 01:01 | 10.68627 | -71.01319 | 20155 ft | 372 kts | 272° |
| 2026-04-29 01:01 | 10.68749 | -71.03942 | 19669 ft | 371 kts | 268° |
| 2026-04-29 01:02 | 10.68534 | -71.06511 | 19103 ft | 371 kts | 261° |
| 2026-04-29 01:02 | 10.68133 | -71.09104 | 18590 ft | 371 kts | 259° |
| 2026-04-29 01:02 | 10.67693 | -71.11718 | 18076 ft | 370 kts | 259° |
| 2026-04-29 01:02 | 10.67262 | -71.14257 | 17541 ft | 368 kts | 259° |
| 2026-04-29 01:03 | 10.66835 | -71.16811 | 17055 ft | 362 kts | 259° |
| 2026-04-29 01:03 | 10.66428 | -71.19300 | 16575 ft | 351 kts | 259° |
| 2026-04-29 01:03 | 10.66038 | -71.21715 | 16120 ft | 341 kts | 259° |
| 2026-04-29 01:03 | 10.65661 | -71.24066 | 15692 ft | 332 kts | 259° |
| 2026-04-29 01:04 | 10.65297 | -71.26355 | 15266 ft | 324 kts | 259° |
| 2026-04-29 01:04 | 10.64939 | -71.28601 | 14850 ft | 320 kts | 259° |
| 2026-04-29 01:04 | 10.64583 | -71.30835 | 14427 ft | 321 kts | 259° |
| 2026-04-29 01:04 | 10.64229 | -71.33063 | 13997 ft | 327 kts | 259° |
| 2026-04-29 01:05 | 10.63860 | -71.35373 | 13531 ft | 335 kts | 259° |
| 2026-04-29 01:05 | 10.63488 | -71.37713 | 13044 ft | 332 kts | 259° |
| 2026-04-29 01:05 | 10.63205 | -71.39497 | 12686 ft | 325 kts | 259° |
| 2026-04-29 01:05 | 10.62877 | -71.41565 | 12276 ft | 316 kts | 259° |
| 2026-04-29 01:06 | 10.62531 | -71.43746 | 11854 ft | 309 kts | 259° |
| 2026-04-29 01:06 | 10.62191 | -71.45880 | 11449 ft | 306 kts | 259° |
| 2026-04-29 01:06 | 10.61850 | -71.48016 | 11050 ft | 307 kts | 259° |
| 2026-04-29 01:06 | 10.61506 | -71.50172 | 10615 ft | 310 kts | 259° |
| 2026-04-29 01:07 | 10.61170 | -71.52282 | 10233 ft | 302 kts | 259° |
| 2026-04-29 01:07 | 10.60844 | -71.54332 | 10077 ft | 289 kts | 259° |
| 2026-04-29 01:07 | 10.60528 | -71.56320 | 9948 ft | 281 kts | 259° |
| 2026-04-29 01:07 | 10.60214 | -71.58284 | 9640 ft | 283 kts | 259° |
| 2026-04-29 01:08 | 10.59895 | -71.60267 | 9292 ft | 286 kts | 259° |
| 2026-04-29 01:08 | 10.59576 | -71.62265 | 8934 ft | 286 kts | 259° |
| 2026-04-29 01:08 | 10.59266 | -71.64207 | 8753 ft | 268 kts | 259° |
| 2026-04-29 01:08 | 10.58981 | -71.66003 | 8593 ft | 249 kts | 259° |
| 2026-04-29 01:09 | 10.58714 | -71.67676 | 8433 ft | 232 kts | 259° |
| 2026-04-29 01:09 | 10.58464 | -71.69236 | 8280 ft | 215 kts | 259° |
| 2026-04-29 01:09 | 10.58230 | -71.70674 | 8124 ft | 199 kts | 256° |
| 2026-04-29 01:09 | 10.57759 | -71.71984 | 7712 ft | 197 kts | 239° |
| 2026-04-29 01:10 | 10.57051 | -71.73144 | 7343 ft | 195 kts | 233° |
| 2026-04-29 01:10 | 10.56288 | -71.74283 | 6948 ft | 195 kts | 233° |
| 2026-04-29 01:10 | 10.55528 | -71.75413 | 6608 ft | 193 kts | 233° |
| 2026-04-29 01:10 | 10.54777 | -71.76533 | 6300 ft | 191 kts | 233° |
| 2026-04-29 01:11 | 10.54031 | -71.77648 | 6065 ft | 191 kts | 233° |
| 2026-04-29 01:11 | 10.53278 | -71.78776 | 5795 ft | 195 kts | 234° |
| 2026-04-29 01:11 | 10.52521 | -71.79914 | 5555 ft | 193 kts | 234° |
| 2026-04-29 01:11 | 10.51774 | -71.81040 | 5309 ft | 191 kts | 234° |
| 2026-04-29 01:12 | 10.51045 | -71.82138 | 5092 ft | 189 kts | 234° |
| 2026-04-29 01:12 | 10.50314 | -71.83238 | 4857 ft | 187 kts | 234° |
| 2026-04-29 01:12 | 10.49589 | -71.84330 | 4660 ft | 186 kts | 234° |
| 2026-04-29 01:12 | 10.48810 | -71.85373 | 4422 ft | 186 kts | 224° |
| 2026-04-29 01:13 | 10.47803 | -71.86176 | 4185 ft | 184 kts | 207° |
| 2026-04-29 01:13 | 10.46618 | -71.86655 | 4057 ft | 182 kts | 189° |
| 2026-04-29 01:13 | 10.45351 | -71.86779 | 3954 ft | 185 kts | 173° |
| 2026-04-29 01:13 | 10.44118 | -71.86544 | 3873 ft | 181 kts | 157° |
| 2026-04-29 01:14 | 10.43006 | -71.85970 | 3793 ft | 178 kts | 140° |
| 2026-04-29 01:14 | 10.42126 | -71.85137 | 3710 ft | 174 kts | 124° |
| 2026-04-29 01:14 | 10.41504 | -71.84103 | 3645 ft | 171 kts | 109° |
| 2026-04-29 01:14 | 10.41173 | -71.82956 | 3522 ft | 171 kts | 95° |
| 2026-04-29 01:15 | 10.41139 | -71.81737 | 3332 ft | 174 kts | 81° |
| 2026-04-29 01:15 | 10.41414 | -71.80560 | 3118 ft | 168 kts | 66° |
| 2026-04-29 01:15 | 10.41964 | -71.79562 | 2915 ft | 156 kts | 50° |
| 2026-04-29 01:15 | 10.42703 | -71.78800 | 2712 ft | 148 kts | 37° |
| 2026-04-29 01:16 | 10.43574 | -71.78277 | 2521 ft | 147 kts | 29° |
| 2026-04-29 01:16 | 10.44471 | -71.77795 | 2313 ft | 141 kts | 27° |
| 2026-04-29 01:16 | 10.45329 | -71.77396 | 2121 ft | 131 kts | 25° |
| 2026-04-29 01:16 | 10.46151 | -71.77034 | 1956 ft | 128 kts | 24° |
| 2026-04-29 01:17 | 10.46981 | -71.76676 | 1810 ft | 131 kts | 23° |
| 2026-04-29 01:17 | 10.47823 | -71.76314 | 1630 ft | 131 kts | 23° |
| 2026-04-29 01:17 | 10.48646 | -71.75962 | 1443 ft | 126 kts | 23° |
| 2026-04-29 01:17 | 10.49465 | -71.75611 | 1304 ft | 132 kts | 23° |
| 2026-04-29 01:18 | 10.50307 | -71.75250 | 1129 ft | 132 kts | 22° |
| 2026-04-29 01:18 | 10.51980 | -71.74536 | 799 ft | 132 kts | 22° |
| 2026-04-29 01:18 | 10.52823 | -71.74196 | 648 ft | 130 kts | 22° |
| 2026-04-29 01:19 | 10.53647 | -71.73822 | 453 ft | 128 kts | 21° |
| 2026-04-29 01:19 | 10.54463 | -71.73476 | 290 ft | 126 kts | 22° |
| 2026-04-29 01:19 | 10.55228 | -71.73145 | 223 ft | 105 kts | 22° |
| 2026-04-29 01:19 | 10.55759 | -71.72918 | 222 ft | 63 kts | 22° |
| 2026-04-29 01:20 | 10.56049 | -71.72793 | 221 ft | 29 kts | 21° |
| 2026-04-29 01:20 | 10.56228 | -71.72718 | 221 ft | 27 kts | 23° |
| 2026-04-29 01:20 | 10.56392 | -71.72642 | 222 ft | 24 kts | 37° |
| 2026-04-29 01:20 | 10.56465 | -71.72542 | 221 ft | 17 kts | 54° |
| 2026-04-29 01:21 | 10.56495 | -71.72501 | 220 ft | 5 kts | 53° |
| 2026-04-29 01:21 | 10.56516 | -71.72473 | 221 ft | 5 kts | 52° |
| 2026-04-29 01:21 | 10.56537 | -71.72445 | 220 ft | 5 kts | 52° |
| 2026-04-29 01:21 | 10.56556 | -71.72417 | 218 ft | 5 kts | 69° |
| 2026-04-29 01:22 | 10.56547 | -71.72386 | 221 ft | 5 kts | 137° |
| 2026-04-29 01:22 | 10.56516 | -71.72389 | 222 ft | 5 kts | 206° |
| 2026-04-29 01:22 | 10.56486 | -71.72404 | 219 ft | 5 kts | 206° |
| 2026-04-29 01:22 | 10.56457 | -71.72419 | 220 ft | 5 kts | 206° |
| 2026-04-29 01:23 | 10.56429 | -71.72433 | 218 ft | 5 kts | 206° |
| 2026-04-29 01:23 | 10.56401 | -71.72447 | 219 ft | 4 kts | 206° |
| 2026-04-29 01:23 | 10.56374 | -71.72461 | 218 ft | 4 kts | 205° |
| 2026-04-29 01:23 | 10.56345 | -71.72469 | 225 ft | 4 kts | 195° |
| 2026-04-29 01:24 | 10.56316 | -71.72478 | 221 ft | 4 kts | 201° |
| 2026-04-29 01:24 | 10.56290 | -71.72489 | 222 ft | 4 kts | 203° |
| 2026-04-29 01:24 | 10.56264 | -71.72501 | 220 ft | 4 kts | 203° |
| 2026-04-29 01:24 | 10.56238 | -71.72512 | 216 ft | 4 kts | 203° |
| 2026-04-29 01:25 | 10.56213 | -71.72523 | 219 ft | 4 kts | 203° |
| 2026-04-29 01:25 | 10.56189 | -71.72534 | 220 ft | 4 kts | 203° |
| 2026-04-29 01:25 | 10.56165 | -71.72544 | 217 ft | 4 kts | 203° |
| 2026-04-29 01:25 | 10.56142 | -71.72554 | 217 ft | 4 kts | 203° |
| 2026-04-29 01:26 | 10.56118 | -71.72563 | 220 ft | 4 kts | 201° |
| 2026-04-29 01:26 | 10.56091 | -71.72574 | 219 ft | 5 kts | 201° |
| 2026-04-29 01:26 | 10.56060 | -71.72587 | 218 ft | 5 kts | 204° |
| 2026-04-29 01:26 | 10.56026 | -71.72603 | 218 ft | 6 kts | 204° |
| 2026-04-29 01:27 | 10.55989 | -71.72619 | 221 ft | 6 kts | 204° |
| 2026-04-29 01:27 | 10.55953 | -71.72634 | 219 ft | 6 kts | 202° |
| 2026-04-29 01:27 | 10.55917 | -71.72649 | 222 ft | 6 kts | 202° |
| 2026-04-29 01:27 | 10.55881 | -71.72663 | 216 ft | 5 kts | 202° |
| 2026-04-29 01:28 | 10.55845 | -71.72678 | 220 ft | 6 kts | 202° |
| 2026-04-29 01:28 | 10.55807 | -71.72694 | 217 ft | 6 kts | 202° |
| 2026-04-29 01:28 | 10.55763 | -71.72711 | 217 ft | 7 kts | 190° |
| 2026-04-29 01:28 | 10.55716 | -71.72698 | 216 ft | 7 kts | 144° |
| 2026-04-29 01:29 | 10.55689 | -71.72653 | 216 ft | 7 kts | 114° |
| 2026-04-29 01:29 | 10.55669 | -71.72607 | 221 ft | 7 kts | 114° |
| 2026-04-29 01:29 | 10.55661 | -71.72589 | 218 ft | 0 kts | 114° |
| 2026-04-29 01:30 | 10.55659 | -71.72584 | 222 ft | 2 kts | 111° |
| 2026-04-29 01:30 | 10.55652 | -71.72566 | 219 ft | 4 kts | 111° |
| 2026-04-29 01:31 | 10.55641 | -71.72539 | 224 ft | 4 kts | 112° |
| 2026-04-29 01:31 | 10.55630 | -71.72514 | 222 ft | 4 kts | 112° |
| 2026-04-29 01:31 | 10.55619 | -71.72489 | 219 ft | 4 kts | 122° |
| 2026-04-29 01:31 | 10.55597 | -71.72477 | 219 ft | 4 kts | 175° |
| 2026-04-29 01:32 | 10.55571 | -71.72479 | 221 ft | 4 kts | 186° |
| 2026-04-29 01:32 | 10.55562 | -71.72480 | 219 ft | 0 kts | 186° |